sensor_id;sensor_type;location;lat;lon;timestamp;P1;durP1;ratioP1;P2;durP2;ratioP2
9720;SDS011;4899;42.644;23.366;2023-04-25T00:01:02;7.60;;;6.80;;
9720;SDS011;4899;42.644;23.366;2023-04-25T00:03:29;6.80;;;6.23;;
9720;SDS011;4899;42.644;23.366;2023-04-25T00:05:56;8.40;;;7.70;;
9720;SDS011;4899;42.644;23.366;2023-04-25T00:08:23;9.73;;;8.23;;
9720;SDS011;4899;42.644;23.366;2023-04-25T00:10:49;9.30;;;8.17;;
9720;SDS011;4899;42.644;23.366;2023-04-25T00:13:15;9.90;;;8.90;;
9720;SDS011;4899;42.644;23.366;2023-04-25T00:15:42;10.03;;;7.50;;
9720;SDS011;4899;42.644;23.366;2023-04-25T00:18:08;8.03;;;7.33;;
9720;SDS011;4899;42.644;23.366;2023-04-25T00:20:35;9.07;;;8.17;;
9720;SDS011;4899;42.644;23.366;2023-04-25T00:23:00;8.17;;;7.47;;
9720;SDS011;4899;42.644;23.366;2023-04-25T00:25:26;9.27;;;8.17;;
9720;SDS011;4899;42.644;23.366;2023-04-25T00:27:52;13.30;;;8.40;;
9720;SDS011;4899;42.644;23.366;2023-04-25T00:30:18;10.57;;;7.93;;
9720;SDS011;4899;42.644;23.366;2023-04-25T00:32:43;12.03;;;8.23;;
9720;SDS011;4899;42.644;23.366;2023-04-25T00:35:09;8.87;;;7.97;;
9720;SDS011;4899;42.644;23.366;2023-04-25T00:37:34;8.90;;;7.80;;
9720;SDS011;4899;42.644;23.366;2023-04-25T00:40:00;9.93;;;8.50;;
9720;SDS011;4899;42.644;23.366;2023-04-25T00:42:25;11.10;;;9.30;;
9720;SDS011;4899;42.644;23.366;2023-04-25T00:44:52;10.73;;;9.53;;
9720;SDS011;4899;42.644;23.366;2023-04-25T00:47:18;11.20;;;10.10;;
9720;SDS011;4899;42.644;23.366;2023-04-25T00:49:43;12.30;;;11.00;;
9720;SDS011;4899;42.644;23.366;2023-04-25T00:52:09;12.77;;;11.50;;
9720;SDS011;4899;42.644;23.366;2023-04-25T00:54:35;13.53;;;11.57;;
9720;SDS011;4899;42.644;23.366;2023-04-25T00:57:00;13.10;;;11.50;;
9720;SDS011;4899;42.644;23.366;2023-04-25T00:59:27;12.20;;;10.63;;
9720;SDS011;4899;42.644;23.366;2023-04-25T01:01:54;12.30;;;11.07;;
9720;SDS011;4899;42.644;23.366;2023-04-25T01:04:20;11.07;;;9.33;;
9720;SDS011;4899;42.644;23.366;2023-04-25T01:06:46;10.60;;;9.30;;
9720;SDS011;4899;42.644;23.366;2023-04-25T01:09:11;9.87;;;8.87;;
9720;SDS011;4899;42.644;23.366;2023-04-25T01:11:37;10.00;;;8.63;;
9720;SDS011;4899;42.644;23.366;2023-04-25T01:14:05;11.37;;;8.20;;
9720;SDS011;4899;42.644;23.366;2023-04-25T01:16:31;10.53;;;9.43;;
9720;SDS011;4899;42.644;23.366;2023-04-25T01:18:58;9.90;;;8.93;;
9720;SDS011;4899;42.644;23.366;2023-04-25T01:21:24;13.10;;;10.60;;
9720;SDS011;4899;42.644;23.366;2023-04-25T01:23:52;10.80;;;9.80;;
9720;SDS011;4899;42.644;23.366;2023-04-25T01:26:19;10.70;;;9.67;;
9720;SDS011;4899;42.644;23.366;2023-04-25T01:28:46;11.97;;;10.67;;
9720;SDS011;4899;42.644;23.366;2023-04-25T01:31:12;11.77;;;10.00;;
9720;SDS011;4899;42.644;23.366;2023-04-25T01:33:38;7.80;;;7.10;;
9720;SDS011;4899;42.644;23.366;2023-04-25T01:36:03;8.47;;;7.57;;
9720;SDS011;4899;42.644;23.366;2023-04-25T01:38:29;7.53;;;6.83;;
9720;SDS011;4899;42.644;23.366;2023-04-25T01:40:55;10.37;;;8.40;;
9720;SDS011;4899;42.644;23.366;2023-04-25T01:43:21;8.53;;;7.73;;
9720;SDS011;4899;42.644;23.366;2023-04-25T01:45:46;10.10;;;7.90;;
9720;SDS011;4899;42.644;23.366;2023-04-25T01:48:14;9.50;;;7.70;;
9720;SDS011;4899;42.644;23.366;2023-04-25T01:50:40;12.20;;;8.40;;
9720;SDS011;4899;42.644;23.366;2023-04-25T01:53:06;9.87;;;7.70;;
9720;SDS011;4899;42.644;23.366;2023-04-25T01:55:34;9.53;;;7.83;;
9720;SDS011;4899;42.644;23.366;2023-04-25T01:58:00;11.33;;;8.60;;
9720;SDS011;4899;42.644;23.366;2023-04-25T02:00:27;12.40;;;8.20;;
9720;SDS011;4899;42.644;23.366;2023-04-25T02:02:53;13.33;;;9.47;;
9720;SDS011;4899;42.644;23.366;2023-04-25T02:05:18;11.83;;;10.03;;
9720;SDS011;4899;42.644;23.366;2023-04-25T02:07:45;11.60;;;9.70;;
9720;SDS011;4899;42.644;23.366;2023-04-25T02:10:10;11.67;;;10.33;;
9720;SDS011;4899;42.644;23.366;2023-04-25T02:12:36;11.03;;;9.87;;
9720;SDS011;4899;42.644;23.366;2023-04-25T02:15:01;11.13;;;9.90;;
9720;SDS011;4899;42.644;23.366;2023-04-25T02:17:27;10.53;;;9.43;;
9720;SDS011;4899;42.644;23.366;2023-04-25T02:19:53;14.07;;;9.73;;
9720;SDS011;4899;42.644;23.366;2023-04-25T02:22:18;15.73;;;10.33;;
9720;SDS011;4899;42.644;23.366;2023-04-25T02:24:44;13.57;;;10.13;;
9720;SDS011;4899;42.644;23.366;2023-04-25T02:27:09;13.60;;;10.90;;
9720;SDS011;4899;42.644;23.366;2023-04-25T02:29:34;16.27;;;10.90;;
9720;SDS011;4899;42.644;23.366;2023-04-25T02:32:00;13.77;;;9.67;;
9720;SDS011;4899;42.644;23.366;2023-04-25T02:34:25;13.53;;;11.17;;
9720;SDS011;4899;42.644;23.366;2023-04-25T02:36:51;15.40;;;11.27;;
9720;SDS011;4899;42.644;23.366;2023-04-25T02:39:16;14.87;;;11.70;;
9720;SDS011;4899;42.644;23.366;2023-04-25T02:41:42;14.50;;;10.20;;
9720;SDS011;4899;42.644;23.366;2023-04-25T02:44:07;15.80;;;11.47;;
9720;SDS011;4899;42.644;23.366;2023-04-25T02:46:33;13.17;;;10.20;;
9720;SDS011;4899;42.644;23.366;2023-04-25T02:48:58;14.30;;;11.30;;
9720;SDS011;4899;42.644;23.366;2023-04-25T02:51:23;17.93;;;11.83;;
9720;SDS011;4899;42.644;23.366;2023-04-25T02:53:49;20.13;;;11.77;;
9720;SDS011;4899;42.644;23.366;2023-04-25T02:56:15;18.27;;;12.37;;
9720;SDS011;4899;42.644;23.366;2023-04-25T02:58:40;19.27;;;12.77;;
9720;SDS011;4899;42.644;23.366;2023-04-25T03:01:06;16.07;;;11.37;;
9720;SDS011;4899;42.644;23.366;2023-04-25T03:03:31;18.97;;;12.87;;
9720;SDS011;4899;42.644;23.366;2023-04-25T03:05:57;16.17;;;11.90;;
9720;SDS011;4899;42.644;23.366;2023-04-25T03:08:22;19.73;;;13.00;;
9720;SDS011;4899;42.644;23.366;2023-04-25T03:10:48;15.27;;;12.00;;
9720;SDS011;4899;42.644;23.366;2023-04-25T03:13:15;16.53;;;12.33;;
9720;SDS011;4899;42.644;23.366;2023-04-25T03:15:40;16.47;;;12.23;;
9720;SDS011;4899;42.644;23.366;2023-04-25T03:18:05;14.53;;;11.60;;
9720;SDS011;4899;42.644;23.366;2023-04-25T03:20:31;17.00;;;12.77;;
9720;SDS011;4899;42.644;23.366;2023-04-25T03:22:56;16.97;;;12.30;;
9720;SDS011;4899;42.644;23.366;2023-04-25T03:25:22;17.83;;;13.20;;
9720;SDS011;4899;42.644;23.366;2023-04-25T03:27:47;15.83;;;12.43;;
9720;SDS011;4899;42.644;23.366;2023-04-25T03:30:13;16.10;;;12.27;;
9720;SDS011;4899;42.644;23.366;2023-04-25T03:32:38;16.77;;;12.20;;
9720;SDS011;4899;42.644;23.366;2023-04-25T03:35:03;15.43;;;12.23;;
9720;SDS011;4899;42.644;23.366;2023-04-25T03:37:30;16.60;;;12.30;;
9720;SDS011;4899;42.644;23.366;2023-04-25T03:39:55;18.03;;;13.07;;
9720;SDS011;4899;42.644;23.366;2023-04-25T03:42:21;19.03;;;12.50;;
9720;SDS011;4899;42.644;23.366;2023-04-25T03:44:48;12.83;;;9.43;;
9720;SDS011;4899;42.644;23.366;2023-04-25T03:47:14;13.60;;;11.50;;
9720;SDS011;4899;42.644;23.366;2023-04-25T03:49:39;16.63;;;12.07;;
9720;SDS011;4899;42.644;23.366;2023-04-25T03:52:05;15.80;;;12.07;;
9720;SDS011;4899;42.644;23.366;2023-04-25T03:54:30;17.50;;;12.47;;
9720;SDS011;4899;42.644;23.366;2023-04-25T03:56:56;16.23;;;12.30;;
9720;SDS011;4899;42.644;23.366;2023-04-25T03:59:21;17.67;;;13.40;;
9720;SDS011;4899;42.644;23.366;2023-04-25T04:01:47;17.23;;;13.83;;
9720;SDS011;4899;42.644;23.366;2023-04-25T04:04:12;17.40;;;13.50;;
9720;SDS011;4899;42.644;23.366;2023-04-25T04:06:38;14.70;;;13.03;;
9720;SDS011;4899;42.644;23.366;2023-04-25T04:09:03;16.23;;;14.23;;
9720;SDS011;4899;42.644;23.366;2023-04-25T04:11:30;16.93;;;12.70;;
9720;SDS011;4899;42.644;23.366;2023-04-25T04:13:56;14.40;;;12.90;;
9720;SDS011;4899;42.644;23.366;2023-04-25T04:16:21;18.27;;;14.20;;
9720;SDS011;4899;42.644;23.366;2023-04-25T04:18:47;19.17;;;15.60;;
9720;SDS011;4899;42.644;23.366;2023-04-25T04:21:12;17.63;;;15.13;;
9720;SDS011;4899;42.644;23.366;2023-04-25T04:23:37;15.73;;;13.80;;
9720;SDS011;4899;42.644;23.366;2023-04-25T04:26:04;14.97;;;13.37;;
9720;SDS011;4899;42.644;23.366;2023-04-25T04:28:32;14.07;;;12.67;;
9720;SDS011;4899;42.644;23.366;2023-04-25T04:30:57;14.03;;;12.53;;
9720;SDS011;4899;42.644;23.366;2023-04-25T04:33:22;13.07;;;11.77;;
9720;SDS011;4899;42.644;23.366;2023-04-25T04:35:48;12.97;;;11.67;;
9720;SDS011;4899;42.644;23.366;2023-04-25T04:38:17;13.87;;;12.40;;
9720;SDS011;4899;42.644;23.366;2023-04-25T04:40:43;13.23;;;11.87;;
9720;SDS011;4899;42.644;23.366;2023-04-25T04:43:09;16.03;;;13.50;;
9720;SDS011;4899;42.644;23.366;2023-04-25T04:45:35;14.93;;;12.77;;
9720;SDS011;4899;42.644;23.366;2023-04-25T04:48:01;13.20;;;11.80;;
9720;SDS011;4899;42.644;23.366;2023-04-25T04:50:27;13.90;;;12.60;;
9720;SDS011;4899;42.644;23.366;2023-04-25T04:52:52;14.03;;;12.53;;
9720;SDS011;4899;42.644;23.366;2023-04-25T04:55:19;13.43;;;12.03;;
9720;SDS011;4899;42.644;23.366;2023-04-25T04:57:44;15.40;;;12.63;;
9720;SDS011;4899;42.644;23.366;2023-04-25T05:00:10;12.27;;;11.10;;
9720;SDS011;4899;42.644;23.366;2023-04-25T05:02:37;12.83;;;11.63;;
9720;SDS011;4899;42.644;23.366;2023-04-25T05:05:04;13.50;;;12.20;;
9720;SDS011;4899;42.644;23.366;2023-04-25T05:07:30;12.73;;;11.47;;
9720;SDS011;4899;42.644;23.366;2023-04-25T05:09:55;12.03;;;10.87;;
9720;SDS011;4899;42.644;23.366;2023-04-25T05:12:20;10.60;;;9.57;;
9720;SDS011;4899;42.644;23.366;2023-04-25T05:14:46;11.10;;;9.10;;
9720;SDS011;4899;42.644;23.366;2023-04-25T05:17:11;9.63;;;8.60;;
9720;SDS011;4899;42.644;23.366;2023-04-25T05:19:37;9.17;;;8.33;;
9720;SDS011;4899;42.644;23.366;2023-04-25T05:22:03;10.33;;;9.43;;
9720;SDS011;4899;42.644;23.366;2023-04-25T05:24:28;11.70;;;10.60;;
9720;SDS011;4899;42.644;23.366;2023-04-25T05:26:54;11.07;;;10.00;;
9720;SDS011;4899;42.644;23.366;2023-04-25T05:29:19;10.90;;;9.90;;
9720;SDS011;4899;42.644;23.366;2023-04-25T05:31:45;11.37;;;10.37;;
9720;SDS011;4899;42.644;23.366;2023-04-25T05:34:10;12.63;;;11.33;;
9720;SDS011;4899;42.644;23.366;2023-04-25T05:36:35;14.23;;;12.73;;
9720;SDS011;4899;42.644;23.366;2023-04-25T05:39:01;12.77;;;10.93;;
9720;SDS011;4899;42.644;23.366;2023-04-25T05:41:28;11.33;;;10.33;;
9720;SDS011;4899;42.644;23.366;2023-04-25T05:43:54;12.00;;;10.70;;
9720;SDS011;4899;42.644;23.366;2023-04-25T05:46:19;11.53;;;10.43;;
9720;SDS011;4899;42.644;23.366;2023-04-25T05:48:45;10.93;;;9.93;;
9720;SDS011;4899;42.644;23.366;2023-04-25T05:51:10;11.33;;;10.33;;
9720;SDS011;4899;42.644;23.366;2023-04-25T05:53:35;11.10;;;10.10;;
9720;SDS011;4899;42.644;23.366;2023-04-25T05:56:01;11.70;;;10.60;;
9720;SDS011;4899;42.644;23.366;2023-04-25T05:58:27;11.97;;;10.87;;
9720;SDS011;4899;42.644;23.366;2023-04-25T06:00:52;11.07;;;10.07;;
9720;SDS011;4899;42.644;23.366;2023-04-25T06:03:17;10.67;;;9.67;;
9720;SDS011;4899;42.644;23.366;2023-04-25T06:05:43;10.53;;;9.63;;
9720;SDS011;4899;42.644;23.366;2023-04-25T06:08:09;10.10;;;9.00;;
9720;SDS011;4899;42.644;23.366;2023-04-25T06:10:35;10.93;;;9.93;;
9720;SDS011;4899;42.644;23.366;2023-04-25T06:13:01;10.07;;;9.13;;
9720;SDS011;4899;42.644;23.366;2023-04-25T06:15:26;9.87;;;8.93;;
9720;SDS011;4899;42.644;23.366;2023-04-25T06:17:52;9.93;;;9.03;;
9720;SDS011;4899;42.644;23.366;2023-04-25T06:20:17;11.93;;;8.60;;
9720;SDS011;4899;42.644;23.366;2023-04-25T06:22:43;7.97;;;7.37;;
9720;SDS011;4899;42.644;23.366;2023-04-25T06:25:08;9.30;;;8.50;;
9720;SDS011;4899;42.644;23.366;2023-04-25T06:27:34;9.37;;;8.57;;
9720;SDS011;4899;42.644;23.366;2023-04-25T06:29:59;10.20;;;9.30;;
9720;SDS011;4899;42.644;23.366;2023-04-25T06:32:25;10.17;;;9.17;;
9720;SDS011;4899;42.644;23.366;2023-04-25T06:34:52;12.30;;;8.53;;
9720;SDS011;4899;42.644;23.366;2023-04-25T06:37:18;10.20;;;9.20;;
9720;SDS011;4899;42.644;23.366;2023-04-25T06:39:43;9.63;;;8.43;;
9720;SDS011;4899;42.644;23.366;2023-04-25T06:42:09;9.57;;;8.63;;
9720;SDS011;4899;42.644;23.366;2023-04-25T06:44:34;8.80;;;8.00;;
9720;SDS011;4899;42.644;23.366;2023-04-25T06:47:00;8.90;;;8.10;;
9720;SDS011;4899;42.644;23.366;2023-04-25T06:49:26;8.20;;;7.50;;
9720;SDS011;4899;42.644;23.366;2023-04-25T06:51:54;8.20;;;7.40;;
9720;SDS011;4899;42.644;23.366;2023-04-25T06:54:20;8.23;;;7.57;;
9720;SDS011;4899;42.644;23.366;2023-04-25T06:56:46;8.83;;;7.93;;
9720;SDS011;4899;42.644;23.366;2023-04-25T06:59:12;8.63;;;7.73;;
9720;SDS011;4899;42.644;23.366;2023-04-25T07:01:37;8.23;;;7.43;;
9720;SDS011;4899;42.644;23.366;2023-04-25T07:04:03;7.83;;;6.90;;
9720;SDS011;4899;42.644;23.366;2023-04-25T07:06:28;8.53;;;7.77;;
9720;SDS011;4899;42.644;23.366;2023-04-25T07:08:54;7.53;;;6.90;;
9720;SDS011;4899;42.644;23.366;2023-04-25T07:11:19;7.40;;;6.73;;
9720;SDS011;4899;42.644;23.366;2023-04-25T07:13:45;8.67;;;7.40;;
9720;SDS011;4899;42.644;23.366;2023-04-25T07:16:10;8.43;;;6.23;;
9720;SDS011;4899;42.644;23.366;2023-04-25T07:18:36;7.43;;;6.73;;
9720;SDS011;4899;42.644;23.366;2023-04-25T07:21:01;12.97;;;6.33;;
9720;SDS011;4899;42.644;23.366;2023-04-25T07:23:27;7.27;;;5.53;;
9720;SDS011;4899;42.644;23.366;2023-04-25T07:25:52;8.50;;;5.77;;
9720;SDS011;4899;42.644;23.366;2023-04-25T07:28:17;6.03;;;5.53;;
9720;SDS011;4899;42.644;23.366;2023-04-25T07:30:43;7.17;;;5.97;;
9720;SDS011;4899;42.644;23.366;2023-04-25T07:33:08;11.60;;;8.50;;
9720;SDS011;4899;42.644;23.366;2023-04-25T07:35:34;8.30;;;7.60;;
9720;SDS011;4899;42.644;23.366;2023-04-25T07:38:01;9.03;;;7.00;;
9720;SDS011;4899;42.644;23.366;2023-04-25T07:40:27;8.57;;;6.83;;
9720;SDS011;4899;42.644;23.366;2023-04-25T07:42:53;7.80;;;7.10;;
9720;SDS011;4899;42.644;23.366;2023-04-25T07:45:18;8.37;;;6.57;;
9720;SDS011;4899;42.644;23.366;2023-04-25T07:47:44;6.43;;;5.87;;
9720;SDS011;4899;42.644;23.366;2023-04-25T07:50:10;8.10;;;7.20;;
9720;SDS011;4899;42.644;23.366;2023-04-25T07:52:36;7.47;;;6.63;;
9720;SDS011;4899;42.644;23.366;2023-04-25T07:55:02;8.47;;;7.27;;
9720;SDS011;4899;42.644;23.366;2023-04-25T07:57:28;11.77;;;7.23;;
9720;SDS011;4899;42.644;23.366;2023-04-25T07:59:54;10.40;;;7.23;;
9720;SDS011;4899;42.644;23.366;2023-04-25T08:02:19;8.53;;;7.00;;
9720;SDS011;4899;42.644;23.366;2023-04-25T08:04:45;6.90;;;6.30;;
9720;SDS011;4899;42.644;23.366;2023-04-25T08:07:11;7.60;;;6.90;;
9720;SDS011;4899;42.644;23.366;2023-04-25T08:09:36;7.50;;;6.73;;
9720;SDS011;4899;42.644;23.366;2023-04-25T08:12:02;7.90;;;6.33;;
9720;SDS011;4899;42.644;23.366;2023-04-25T08:14:28;7.63;;;6.57;;
9720;SDS011;4899;42.644;23.366;2023-04-25T08:17:00;12.97;;;6.87;;
9720;SDS011;4899;42.644;23.366;2023-04-25T08:19:26;6.20;;;5.70;;
9720;SDS011;4899;42.644;23.366;2023-04-25T08:21:51;7.77;;;5.67;;
9720;SDS011;4899;42.644;23.366;2023-04-25T08:24:16;8.00;;;5.20;;
9720;SDS011;4899;42.644;23.366;2023-04-25T08:26:42;5.80;;;5.20;;
9720;SDS011;4899;42.644;23.366;2023-04-25T08:29:07;7.00;;;5.07;;
9720;SDS011;4899;42.644;23.366;2023-04-25T08:31:33;5.33;;;4.83;;
9720;SDS011;4899;42.644;23.366;2023-04-25T08:33:58;8.50;;;4.73;;
9720;SDS011;4899;42.644;23.366;2023-04-25T08:36:23;5.07;;;4.10;;
9720;SDS011;4899;42.644;23.366;2023-04-25T08:38:49;7.53;;;4.27;;
9720;SDS011;4899;42.644;23.366;2023-04-25T08:41:14;4.10;;;3.30;;
9720;SDS011;4899;42.644;23.366;2023-04-25T08:43:42;3.90;;;3.37;;
9720;SDS011;4899;42.644;23.366;2023-04-25T08:46:09;4.77;;;2.13;;
9720;SDS011;4899;42.644;23.366;2023-04-25T08:48:35;4.23;;;2.40;;
9720;SDS011;4899;42.644;23.366;2023-04-25T08:51:01;2.87;;;2.63;;
9720;SDS011;4899;42.644;23.366;2023-04-25T08:53:30;2.97;;;2.77;;
9720;SDS011;4899;42.644;23.366;2023-04-25T08:55:58;2.67;;;2.47;;
9720;SDS011;4899;42.644;23.366;2023-04-25T08:58:26;2.80;;;2.60;;
9720;SDS011;4899;42.644;23.366;2023-04-25T09:00:52;2.50;;;2.30;;
9720;SDS011;4899;42.644;23.366;2023-04-25T09:03:18;3.33;;;2.77;;
9720;SDS011;4899;42.644;23.366;2023-04-25T09:05:43;5.93;;;5.53;;
9720;SDS011;4899;42.644;23.366;2023-04-25T09:08:09;7.20;;;6.50;;
9720;SDS011;4899;42.644;23.366;2023-04-25T09:10:35;7.20;;;6.60;;
9720;SDS011;4899;42.644;23.366;2023-04-25T09:13:02;6.90;;;5.87;;
9720;SDS011;4899;42.644;23.366;2023-04-25T09:15:31;6.83;;;6.23;;
9720;SDS011;4899;42.644;23.366;2023-04-25T09:17:58;7.47;;;6.70;;
9720;SDS011;4899;42.644;23.366;2023-04-25T09:20:24;8.73;;;7.90;;
9720;SDS011;4899;42.644;23.366;2023-04-25T09:23:00;7.00;;;6.13;;
9720;SDS011;4899;42.644;23.366;2023-04-25T09:25:33;8.90;;;6.97;;
9720;SDS011;4899;42.644;23.366;2023-04-25T09:28:03;10.13;;;7.60;;
9720;SDS011;4899;42.644;23.366;2023-04-25T09:30:30;8.37;;;7.43;;
9720;SDS011;4899;42.644;23.366;2023-04-25T09:32:57;6.73;;;6.07;;
9720;SDS011;4899;42.644;23.366;2023-04-25T09:35:28;5.53;;;5.03;;
9720;SDS011;4899;42.644;23.366;2023-04-25T09:37:55;6.70;;;6.00;;
9720;SDS011;4899;42.644;23.366;2023-04-25T09:40:20;6.23;;;5.63;;
9720;SDS011;4899;42.644;23.366;2023-04-25T09:42:46;6.97;;;6.37;;
9720;SDS011;4899;42.644;23.366;2023-04-25T09:45:14;6.27;;;5.77;;
9720;SDS011;4899;42.644;23.366;2023-04-25T09:47:40;6.20;;;5.70;;
9720;SDS011;4899;42.644;23.366;2023-04-25T09:50:13;7.63;;;6.87;;
9720;SDS011;4899;42.644;23.366;2023-04-25T09:52:40;9.10;;;6.00;;
9720;SDS011;4899;42.644;23.366;2023-04-25T09:55:06;8.00;;;5.83;;
9720;SDS011;4899;42.644;23.366;2023-04-25T09:57:32;5.57;;;5.07;;
9720;SDS011;4899;42.644;23.366;2023-04-25T09:59:58;5.13;;;4.73;;
9720;SDS011;4899;42.644;23.366;2023-04-25T10:02:26;9.07;;;5.60;;
9720;SDS011;4899;42.644;23.366;2023-04-25T10:04:53;7.10;;;5.30;;
9720;SDS011;4899;42.644;23.366;2023-04-25T10:07:23;4.37;;;3.70;;
9720;SDS011;4899;42.644;23.366;2023-04-25T10:09:52;4.07;;;3.67;;
9720;SDS011;4899;42.644;23.366;2023-04-25T10:12:24;5.03;;;3.67;;
9720;SDS011;4899;42.644;23.366;2023-04-25T10:14:50;3.20;;;3.00;;
9720;SDS011;4899;42.644;23.366;2023-04-25T10:17:17;6.93;;;3.57;;
9720;SDS011;4899;42.644;23.366;2023-04-25T10:19:45;3.13;;;2.87;;
9720;SDS011;4899;42.644;23.366;2023-04-25T10:25:00;3.83;;;3.23;;
9720;SDS011;4899;42.644;23.366;2023-04-25T10:27:28;3.20;;;2.03;;
9720;SDS011;4899;42.644;23.366;2023-04-25T10:30:02;0.57;;;0.50;;
9720;SDS011;4899;42.644;23.366;2023-04-25T10:32:36;1.63;;;0.73;;
9720;SDS011;4899;42.644;23.366;2023-04-25T10:35:14;1.00;;;1.00;;
9720;SDS011;4899;42.644;23.366;2023-04-25T10:40:30;0.60;;;0.60;;
9720;SDS011;4899;42.644;23.366;2023-04-25T10:46:03;1.07;;;1.00;;
9720;SDS011;4899;42.644;23.366;2023-04-25T10:48:51;1.07;;;0.93;;
9720;SDS011;4899;42.644;23.366;2023-04-25T10:56:30;3.10;;;2.90;;
9720;SDS011;4899;42.644;23.366;2023-04-25T10:59:04;3.20;;;3.00;;
9720;SDS011;4899;42.644;23.366;2023-04-25T11:01:35;3.93;;;2.60;;
9720;SDS011;4899;42.644;23.366;2023-04-25T11:04:02;4.07;;;2.40;;
9720;SDS011;4899;42.644;23.366;2023-04-25T11:08:53;6.20;;;2.33;;
9720;SDS011;4899;42.644;23.366;2023-04-25T11:11:19;4.17;;;2.80;;
9720;SDS011;4899;42.644;23.366;2023-04-25T11:13:48;3.43;;;1.80;;
9720;SDS011;4899;42.644;23.366;2023-04-25T11:16:14;2.27;;;1.73;;
9720;SDS011;4899;42.644;23.366;2023-04-25T11:18:43;2.40;;;0.70;;
9720;SDS011;4899;42.644;23.366;2023-04-25T11:21:09;0.50;;;0.50;;
9720;SDS011;4899;42.644;23.366;2023-04-25T11:23:35;0.50;;;0.50;;
9720;SDS011;4899;42.644;23.366;2023-04-25T11:26:02;0.30;;;0.30;;
9720;SDS011;4899;42.644;23.366;2023-04-25T11:28:28;0.97;;;0.87;;
9720;SDS011;4899;42.644;23.366;2023-04-25T11:30:54;1.37;;;1.07;;
9720;SDS011;4899;42.644;23.366;2023-04-25T11:33:23;5.37;;;1.90;;
9720;SDS011;4899;42.644;23.366;2023-04-25T11:35:50;4.13;;;1.73;;
9720;SDS011;4899;42.644;23.366;2023-04-25T11:38:17;3.33;;;1.80;;
9720;SDS011;4899;42.644;23.366;2023-04-25T11:40:43;3.93;;;1.93;;
9720;SDS011;4899;42.644;23.366;2023-04-25T11:43:08;5.90;;;1.90;;
9720;SDS011;4899;42.644;23.366;2023-04-25T11:45:36;3.97;;;2.47;;
9720;SDS011;4899;42.644;23.366;2023-04-25T11:48:02;3.87;;;2.60;;
9720;SDS011;4899;42.644;23.366;2023-04-25T11:50:28;4.20;;;2.50;;
9720;SDS011;4899;42.644;23.366;2023-04-25T11:52:55;2.10;;;1.90;;
9720;SDS011;4899;42.644;23.366;2023-04-25T11:55:21;2.73;;;2.23;;
9720;SDS011;4899;42.644;23.366;2023-04-25T11:57:48;3.70;;;1.40;;
9720;SDS011;4899;42.644;23.366;2023-04-25T12:00:15;3.10;;;1.67;;
9720;SDS011;4899;42.644;23.366;2023-04-25T12:02:45;1.23;;;1.00;;
9720;SDS011;4899;42.644;23.366;2023-04-25T12:05:12;0.87;;;0.80;;
9720;SDS011;4899;42.644;23.366;2023-04-25T12:07:39;3.43;;;1.03;;
9720;SDS011;4899;42.644;23.366;2023-04-25T12:10:09;2.43;;;1.20;;
9720;SDS011;4899;42.644;23.366;2023-04-25T12:12:37;1.30;;;1.20;;
9720;SDS011;4899;42.644;23.366;2023-04-25T12:15:09;1.70;;;1.10;;
9720;SDS011;4899;42.644;23.366;2023-04-25T12:17:44;1.40;;;0.90;;
9720;SDS011;4899;42.644;23.366;2023-04-25T12:20:14;1.50;;;1.20;;
9720;SDS011;4899;42.644;23.366;2023-04-25T12:22:42;1.43;;;1.30;;
9720;SDS011;4899;42.644;23.366;2023-04-25T12:25:13;0.80;;;0.80;;
9720;SDS011;4899;42.644;23.366;2023-04-25T12:28:11;2.27;;;1.47;;
9720;SDS011;4899;42.644;23.366;2023-04-25T12:30:55;1.30;;;1.20;;
9720;SDS011;4899;42.644;23.366;2023-04-25T12:33:22;1.20;;;1.10;;
9720;SDS011;4899;42.644;23.366;2023-04-25T12:35:48;2.10;;;1.23;;
9720;SDS011;4899;42.644;23.366;2023-04-25T12:38:27;0.60;;;0.60;;
9720;SDS011;4899;42.644;23.366;2023-04-25T12:40:55;1.03;;;1.00;;
9720;SDS011;4899;42.644;23.366;2023-04-25T12:43:21;1.03;;;0.77;;
9720;SDS011;4899;42.644;23.366;2023-04-25T12:45:47;0.90;;;0.90;;
9720;SDS011;4899;42.644;23.366;2023-04-25T12:48:15;0.93;;;0.70;;
9720;SDS011;4899;42.644;23.366;2023-04-25T12:50:40;2.20;;;0.70;;
9720;SDS011;4899;42.644;23.366;2023-04-25T12:53:07;1.13;;;1.03;;
9720;SDS011;4899;42.644;23.366;2023-04-25T12:55:32;1.67;;;1.00;;
9720;SDS011;4899;42.644;23.366;2023-04-25T12:57:58;0.87;;;0.80;;
9720;SDS011;4899;42.644;23.366;2023-04-25T13:00:23;1.90;;;0.80;;
9720;SDS011;4899;42.644;23.366;2023-04-25T13:02:49;2.27;;;0.80;;
9720;SDS011;4899;42.644;23.366;2023-04-25T13:05:15;1.57;;;1.03;;
9720;SDS011;4899;42.644;23.366;2023-04-25T13:07:40;2.40;;;1.30;;
9720;SDS011;4899;42.644;23.366;2023-04-25T13:10:06;1.10;;;1.00;;
9720;SDS011;4899;42.644;23.366;2023-04-25T13:12:32;2.43;;;1.20;;
9720;SDS011;4899;42.644;23.366;2023-04-25T13:14:58;3.43;;;1.10;;
9720;SDS011;4899;42.644;23.366;2023-04-25T13:17:23;1.23;;;1.03;;
9720;SDS011;4899;42.644;23.366;2023-04-25T13:19:49;1.30;;;1.20;;
9720;SDS011;4899;42.644;23.366;2023-04-25T13:22:14;1.00;;;1.00;;
9720;SDS011;4899;42.644;23.366;2023-04-25T13:24:41;1.57;;;1.20;;
9720;SDS011;4899;42.644;23.366;2023-04-25T13:27:07;1.37;;;1.27;;
9720;SDS011;4899;42.644;23.366;2023-04-25T13:29:32;3.17;;;1.57;;
9720;SDS011;4899;42.644;23.366;2023-04-25T13:32:00;2.90;;;2.17;;
9720;SDS011;4899;42.644;23.366;2023-04-25T13:34:26;1.77;;;1.67;;
9720;SDS011;4899;42.644;23.366;2023-04-25T13:36:53;1.93;;;1.73;;
9720;SDS011;4899;42.644;23.366;2023-04-25T13:39:18;2.40;;;2.20;;
9720;SDS011;4899;42.644;23.366;2023-04-25T13:41:43;2.30;;;2.10;;
9720;SDS011;4899;42.644;23.366;2023-04-25T13:44:09;3.10;;;2.00;;
9720;SDS011;4899;42.644;23.366;2023-04-25T13:46:35;2.17;;;1.97;;
9720;SDS011;4899;42.644;23.366;2023-04-25T13:49:03;3.03;;;2.17;;
9720;SDS011;4899;42.644;23.366;2023-04-25T13:51:29;3.87;;;2.40;;
9720;SDS011;4899;42.644;23.366;2023-04-25T13:53:55;2.47;;;2.30;;
9720;SDS011;4899;42.644;23.366;2023-04-25T13:56:21;1.50;;;1.40;;
9720;SDS011;4899;42.644;23.366;2023-04-25T13:58:48;5.00;;;2.03;;
9720;SDS011;4899;42.644;23.366;2023-04-25T14:01:13;2.20;;;2.00;;
9720;SDS011;4899;42.644;23.366;2023-04-25T14:03:39;7.10;;;2.00;;
9720;SDS011;4899;42.644;23.366;2023-04-25T14:06:04;2.60;;;1.53;;
9720;SDS011;4899;42.644;23.366;2023-04-25T14:08:30;1.40;;;1.30;;
9720;SDS011;4899;42.644;23.366;2023-04-25T14:10:55;1.77;;;1.60;;
9720;SDS011;4899;42.644;23.366;2023-04-25T14:13:21;1.60;;;1.30;;
9720;SDS011;4899;42.644;23.366;2023-04-25T14:15:48;1.40;;;1.30;;
9720;SDS011;4899;42.644;23.366;2023-04-25T14:18:15;1.33;;;1.23;;
9720;SDS011;4899;42.644;23.366;2023-04-25T14:20:40;2.97;;;2.77;;
9720;SDS011;4899;42.644;23.366;2023-04-25T14:23:06;1.77;;;1.07;;
9720;SDS011;4899;42.644;23.366;2023-04-25T14:25:31;1.70;;;1.60;;
9720;SDS011;4899;42.644;23.366;2023-04-25T14:27:57;1.43;;;1.20;;
9720;SDS011;4899;42.644;23.366;2023-04-25T14:30:22;1.30;;;1.20;;
9720;SDS011;4899;42.644;23.366;2023-04-25T14:32:51;1.67;;;1.40;;
9720;SDS011;4899;42.644;23.366;2023-04-25T14:35:16;1.40;;;1.30;;
9720;SDS011;4899;42.644;23.366;2023-04-25T14:37:42;1.10;;;1.00;;
9720;SDS011;4899;42.644;23.366;2023-04-25T14:40:08;1.60;;;1.20;;
9720;SDS011;4899;42.644;23.366;2023-04-25T14:42:35;3.50;;;1.33;;
9720;SDS011;4899;42.644;23.366;2023-04-25T14:45:02;2.20;;;2.00;;
9720;SDS011;4899;42.644;23.366;2023-04-25T14:47:28;2.00;;;1.90;;
9720;SDS011;4899;42.644;23.366;2023-04-25T14:49:54;2.80;;;2.00;;
9720;SDS011;4899;42.644;23.366;2023-04-25T14:52:20;1.63;;;1.30;;
9720;SDS011;4899;42.644;23.366;2023-04-25T14:54:47;2.73;;;1.80;;
9720;SDS011;4899;42.644;23.366;2023-04-25T14:57:12;1.77;;;1.67;;
9720;SDS011;4899;42.644;23.366;2023-04-25T14:59:38;1.53;;;1.37;;
9720;SDS011;4899;42.644;23.366;2023-04-25T15:02:05;2.80;;;1.67;;
9720;SDS011;4899;42.644;23.366;2023-04-25T15:04:30;1.90;;;1.80;;